sensor_id;sensor_type;location;lat;lon;timestamp;P1;durP1;ratioP1;P2;durP2;ratioP2
28176;SDS011;15461;41.652;9.378;2024-03-22T00:00:05;11.50;;;5.47;;
28176;SDS011;15461;41.652;9.378;2024-03-22T00:02:39;10.90;;;5.50;;
28176;SDS011;15461;41.652;9.378;2024-03-22T00:05:04;12.25;;;5.88;;
28176;SDS011;15461;41.652;9.378;2024-03-22T00:07:30;8.95;;;5.38;;
28176;SDS011;15461;41.652;9.378;2024-03-22T00:09:56;10.02;;;5.30;;
28176;SDS011;15461;41.652;9.378;2024-03-22T00:12:22;8.25;;;4.93;;
28176;SDS011;15461;41.652;9.378;2024-03-22T00:14:48;7.90;;;5.05;;
28176;SDS011;15461;41.652;9.378;2024-03-22T00:17:16;7.53;;;4.90;;
28176;SDS011;15461;41.652;9.378;2024-03-22T00:19:42;10.48;;;4.97;;
28176;SDS011;15461;41.652;9.378;2024-03-22T00:22:08;8.63;;;5.18;;
28176;SDS011;15461;41.652;9.378;2024-03-22T00:24:34;7.60;;;4.97;;
28176;SDS011;15461;41.652;9.378;2024-03-22T00:27:00;7.95;;;4.78;;
28176;SDS011;15461;41.652;9.378;2024-03-22T00:29:26;7.82;;;5.10;;
28176;SDS011;15461;41.652;9.378;2024-03-22T00:31:52;10.73;;;4.97;;
28176;SDS011;15461;41.652;9.378;2024-03-22T00:34:17;7.35;;;4.57;;
28176;SDS011;15461;41.652;9.378;2024-03-22T00:36:44;9.82;;;4.75;;
28176;SDS011;15461;41.652;9.378;2024-03-22T00:39:11;9.32;;;4.85;;
28176;SDS011;15461;41.652;9.378;2024-03-22T00:41:37;7.47;;;4.30;;
28176;SDS011;15461;41.652;9.378;2024-03-22T00:44:04;8.65;;;4.88;;
28176;SDS011;15461;41.652;9.378;2024-03-22T00:46:30;11.45;;;4.68;;
28176;SDS011;15461;41.652;9.378;2024-03-22T00:48:56;7.55;;;4.00;;
28176;SDS011;15461;41.652;9.378;2024-03-22T00:51:23;12.02;;;3.85;;
28176;SDS011;15461;41.652;9.378;2024-03-22T00:53:50;6.40;;;4.18;;
28176;SDS011;15461;41.652;9.378;2024-03-22T00:56:16;7.50;;;3.92;;
28176;SDS011;15461;41.652;9.378;2024-03-22T00:58:42;5.40;;;3.70;;
28176;SDS011;15461;41.652;9.378;2024-03-22T01:01:07;5.00;;;3.13;;
28176;SDS011;15461;41.652;9.378;2024-03-22T01:03:33;7.22;;;4.00;;
28176;SDS011;15461;41.652;9.378;2024-03-22T01:05:59;7.55;;;3.30;;
28176;SDS011;15461;41.652;9.378;2024-03-22T01:08:25;7.50;;;3.70;;
28176;SDS011;15461;41.652;9.378;2024-03-22T01:10:51;6.10;;;3.70;;
28176;SDS011;15461;41.652;9.378;2024-03-22T01:13:16;9.32;;;3.95;;
28176;SDS011;15461;41.652;9.378;2024-03-22T01:15:42;8.02;;;3.78;;
28176;SDS011;15461;41.652;9.378;2024-03-22T01:18:09;5.90;;;3.33;;
28176;SDS011;15461;41.652;9.378;2024-03-22T01:20:34;8.93;;;3.75;;
28176;SDS011;15461;41.652;9.378;2024-03-22T01:23:00;5.05;;;3.33;;
28176;SDS011;15461;41.652;9.378;2024-03-22T01:25:27;7.10;;;3.60;;
28176;SDS011;15461;41.652;9.378;2024-03-22T01:27:53;8.73;;;3.53;;
28176;SDS011;15461;41.652;9.378;2024-03-22T01:30:18;7.38;;;3.80;;
28176;SDS011;15461;41.652;9.378;2024-03-22T01:32:44;8.40;;;3.92;;
28176;SDS011;15461;41.652;9.378;2024-03-22T01:35:10;8.27;;;3.53;;
28176;SDS011;15461;41.652;9.378;2024-03-22T01:37:36;5.20;;;2.90;;
28176;SDS011;15461;41.652;9.378;2024-03-22T01:40:02;6.65;;;3.60;;
28176;SDS011;15461;41.652;9.378;2024-03-22T01:42:30;5.28;;;3.28;;
28176;SDS011;15461;41.652;9.378;2024-03-22T01:44:56;5.40;;;3.25;;
28176;SDS011;15461;41.652;9.378;2024-03-22T01:47:21;8.77;;;3.60;;
28176;SDS011;15461;41.652;9.378;2024-03-22T01:49:48;7.47;;;3.13;;
28176;SDS011;15461;41.652;9.378;2024-03-22T01:52:15;7.40;;;3.22;;
28176;SDS011;15461;41.652;9.378;2024-03-22T01:54:41;4.65;;;2.97;;
28176;SDS011;15461;41.652;9.378;2024-03-22T01:57:07;6.10;;;3.50;;
28176;SDS011;15461;41.652;9.378;2024-03-22T01:59:34;5.32;;;3.50;;
28176;SDS011;15461;41.652;9.378;2024-03-22T02:01:59;4.25;;;2.70;;
28176;SDS011;15461;41.652;9.378;2024-03-22T02:04:25;6.40;;;3.15;;
28176;SDS011;15461;41.652;9.378;2024-03-22T02:06:51;6.18;;;3.45;;
28176;SDS011;15461;41.652;9.378;2024-03-22T02:09:17;8.23;;;3.35;;
28176;SDS011;15461;41.652;9.378;2024-03-22T02:11:43;7.30;;;3.05;;
28176;SDS011;15461;41.652;9.378;2024-03-22T02:14:10;6.47;;;3.00;;
28176;SDS011;15461;41.652;9.378;2024-03-22T02:16:35;5.50;;;3.13;;
28176;SDS011;15461;41.652;9.378;2024-03-22T02:19:01;8.73;;;3.45;;
28176;SDS011;15461;41.652;9.378;2024-03-22T02:21:27;4.78;;;3.20;;
28176;SDS011;15461;41.652;9.378;2024-03-22T02:23:53;8.65;;;3.42;;
28176;SDS011;15461;41.652;9.378;2024-03-22T02:26:18;9.30;;;3.75;;
28176;SDS011;15461;41.652;9.378;2024-03-22T02:28:44;6.88;;;3.50;;
28176;SDS011;15461;41.652;9.378;2024-03-22T02:31:10;5.28;;;2.80;;
28176;SDS011;15461;41.652;9.378;2024-03-22T02:33:36;7.10;;;3.08;;
28176;SDS011;15461;41.652;9.378;2024-03-22T02:36:01;7.00;;;3.20;;
28176;SDS011;15461;41.652;9.378;2024-03-22T02:38:27;6.28;;;3.00;;
28176;SDS011;15461;41.652;9.378;2024-03-22T02:40:53;5.57;;;3.13;;
28176;SDS011;15461;41.652;9.378;2024-03-22T02:43:19;4.57;;;2.90;;
28176;SDS011;15461;41.652;9.378;2024-03-22T02:45:46;5.63;;;3.05;;
28176;SDS011;15461;41.652;9.378;2024-03-22T02:48:12;7.10;;;3.15;;
28176;SDS011;15461;41.652;9.378;2024-03-22T02:50:38;6.10;;;3.20;;
28176;SDS011;15461;41.652;9.378;2024-03-22T02:53:04;5.97;;;3.53;;
28176;SDS011;15461;41.652;9.378;2024-03-22T02:55:36;10.20;;;3.13;;
28176;SDS011;15461;41.652;9.378;2024-03-22T02:58:03;10.85;;;3.17;;
28176;SDS011;15461;41.652;9.378;2024-03-22T03:00:29;5.57;;;2.97;;
28176;SDS011;15461;41.652;9.378;2024-03-22T03:02:55;5.10;;;3.30;;
28176;SDS011;15461;41.652;9.378;2024-03-22T03:05:20;6.43;;;3.28;;
28176;SDS011;15461;41.652;9.378;2024-03-22T03:07:48;5.65;;;2.90;;
28176;SDS011;15461;41.652;9.378;2024-03-22T03:10:15;3.95;;;2.72;;
28176;SDS011;15461;41.652;9.378;2024-03-22T03:12:42;4.47;;;3.10;;
28176;SDS011;15461;41.652;9.378;2024-03-22T03:15:07;8.10;;;3.35;;
28176;SDS011;15461;41.652;9.378;2024-03-22T03:17:33;6.90;;;3.28;;
28176;SDS011;15461;41.652;9.378;2024-03-22T03:19:59;8.63;;;3.55;;
28176;SDS011;15461;41.652;9.378;2024-03-22T03:22:25;4.93;;;3.13;;
28176;SDS011;15461;41.652;9.378;2024-03-22T03:24:50;6.28;;;3.30;;
28176;SDS011;15461;41.652;9.378;2024-03-22T03:27:16;5.60;;;3.00;;
28176;SDS011;15461;41.652;9.378;2024-03-22T03:29:42;4.82;;;2.90;;
28176;SDS011;15461;41.652;9.378;2024-03-22T03:32:08;5.10;;;3.00;;
28176;SDS011;15461;41.652;9.378;2024-03-22T03:34:34;6.35;;;3.00;;
28176;SDS011;15461;41.652;9.378;2024-03-22T03:36:59;6.28;;;3.10;;
28176;SDS011;15461;41.652;9.378;2024-03-22T03:39:26;4.43;;;2.72;;
28176;SDS011;15461;41.652;9.378;2024-03-22T03:41:54;5.15;;;3.10;;
28176;SDS011;15461;41.652;9.378;2024-03-22T03:44:20;6.47;;;3.08;;
28176;SDS011;15461;41.652;9.378;2024-03-22T03:46:46;8.65;;;3.05;;
28176;SDS011;15461;41.652;9.378;2024-03-22T03:49:12;7.57;;;2.83;;
28176;SDS011;15461;41.652;9.378;2024-03-22T03:51:37;4.03;;;3.03;;
28176;SDS011;15461;41.652;9.378;2024-03-22T03:54:03;6.45;;;2.95;;
28176;SDS011;15461;41.652;9.378;2024-03-22T03:56:29;5.55;;;3.00;;
28176;SDS011;15461;41.652;9.378;2024-03-22T03:58:55;6.93;;;3.25;;
28176;SDS011;15461;41.652;9.378;2024-03-22T04:01:21;5.40;;;2.90;;
28176;SDS011;15461;41.652;9.378;2024-03-22T04:03:48;4.55;;;2.60;;
28176;SDS011;15461;41.652;9.378;2024-03-22T04:06:14;8.13;;;3.28;;
28176;SDS011;15461;41.652;9.378;2024-03-22T04:08:40;3.58;;;2.80;;
28176;SDS011;15461;41.652;9.378;2024-03-22T04:11:05;4.35;;;2.75;;
28176;SDS011;15461;41.652;9.378;2024-03-22T04:13:31;6.55;;;2.63;;
28176;SDS011;15461;41.652;9.378;2024-03-22T04:15:58;5.55;;;2.97;;
28176;SDS011;15461;41.652;9.378;2024-03-22T04:18:24;6.90;;;2.88;;
28176;SDS011;15461;41.652;9.378;2024-03-22T04:20:57;6.80;;;2.53;;
28176;SDS011;15461;41.652;9.378;2024-03-22T04:23:23;4.07;;;3.00;;
28176;SDS011;15461;41.652;9.378;2024-03-22T04:28:24;4.80;;;2.88;;
28176;SDS011;15461;41.652;9.378;2024-03-22T04:31:00;6.75;;;2.53;;
28176;SDS011;15461;41.652;9.378;2024-03-22T04:33:27;8.85;;;2.85;;
28176;SDS011;15461;41.652;9.378;2024-03-22T04:35:54;6.07;;;2.70;;
28176;SDS011;15461;41.652;9.378;2024-03-22T04:38:21;7.85;;;2.65;;
28176;SDS011;15461;41.652;9.378;2024-03-22T04:40:47;6.18;;;2.70;;
28176;SDS011;15461;41.652;9.378;2024-03-22T04:43:14;6.28;;;2.72;;
28176;SDS011;15461;41.652;9.378;2024-03-22T04:45:41;6.45;;;3.10;;
28176;SDS011;15461;41.652;9.378;2024-03-22T04:48:08;5.78;;;3.05;;
28176;SDS011;15461;41.652;9.378;2024-03-22T04:50:34;7.43;;;3.28;;
28176;SDS011;15461;41.652;9.378;2024-03-22T04:53:00;7.18;;;2.60;;
28176;SDS011;15461;41.652;9.378;2024-03-22T04:55:26;5.22;;;2.88;;
28176;SDS011;15461;41.652;9.378;2024-03-22T04:57:52;5.72;;;2.83;;
28176;SDS011;15461;41.652;9.378;2024-03-22T05:00:18;4.20;;;2.55;;
28176;SDS011;15461;41.652;9.378;2024-03-22T05:02:44;5.53;;;2.85;;
28176;SDS011;15461;41.652;9.378;2024-03-22T05:05:11;3.65;;;2.58;;
28176;SDS011;15461;41.652;9.378;2024-03-22T05:07:37;4.15;;;2.47;;
28176;SDS011;15461;41.652;9.378;2024-03-22T05:10:03;4.50;;;2.70;;
28176;SDS011;15461;41.652;9.378;2024-03-22T05:12:29;4.28;;;2.45;;
28176;SDS011;15461;41.652;9.378;2024-03-22T05:14:55;4.88;;;2.40;;
28176;SDS011;15461;41.652;9.378;2024-03-22T05:17:20;4.75;;;2.63;;
28176;SDS011;15461;41.652;9.378;2024-03-22T05:19:46;3.00;;;2.40;;
28176;SDS011;15461;41.652;9.378;2024-03-22T05:22:12;5.05;;;2.90;;
28176;SDS011;15461;41.652;9.378;2024-03-22T05:24:38;3.42;;;2.40;;
28176;SDS011;15461;41.652;9.378;2024-03-22T05:27:04;3.28;;;2.20;;
28176;SDS011;15461;41.652;9.378;2024-03-22T05:29:29;7.90;;;2.63;;
28176;SDS011;15461;41.652;9.378;2024-03-22T05:31:55;3.47;;;2.38;;
28176;SDS011;15461;41.652;9.378;2024-03-22T05:34:22;3.03;;;2.30;;
28176;SDS011;15461;41.652;9.378;2024-03-22T05:36:48;3.03;;;2.08;;
28176;SDS011;15461;41.652;9.378;2024-03-22T05:39:14;5.07;;;2.00;;
28176;SDS011;15461;41.652;9.378;2024-03-22T05:41:40;4.22;;;2.25;;
28176;SDS011;15461;41.652;9.378;2024-03-22T05:44:05;4.90;;;2.85;;
28176;SDS011;15461;41.652;9.378;2024-03-22T05:46:32;2.63;;;2.20;;
28176;SDS011;15461;41.652;9.378;2024-03-22T05:48:58;3.35;;;2.13;;
28176;SDS011;15461;41.652;9.378;2024-03-22T05:51:24;5.28;;;2.40;;
28176;SDS011;15461;41.652;9.378;2024-03-22T05:53:50;4.57;;;2.45;;
28176;SDS011;15461;41.652;9.378;2024-03-22T05:56:16;3.63;;;2.58;;
28176;SDS011;15461;41.652;9.378;2024-03-22T05:58:42;3.47;;;2.13;;
28176;SDS011;15461;41.652;9.378;2024-03-22T06:01:07;4.55;;;2.30;;
28176;SDS011;15461;41.652;9.378;2024-03-22T06:03:33;4.35;;;2.38;;
28176;SDS011;15461;41.652;9.378;2024-03-22T06:05:59;7.20;;;2.72;;
28176;SDS011;15461;41.652;9.378;2024-03-22T06:08:26;5.13;;;2.50;;
28176;SDS011;15461;41.652;9.378;2024-03-22T06:10:52;7.22;;;2.85;;
28176;SDS011;15461;41.652;9.378;2024-03-22T06:13:19;5.13;;;2.83;;
28176;SDS011;15461;41.652;9.378;2024-03-22T06:15:46;6.00;;;2.90;;
28176;SDS011;15461;41.652;9.378;2024-03-22T06:18:14;3.80;;;2.58;;
28176;SDS011;15461;41.652;9.378;2024-03-22T06:20:40;5.95;;;2.92;;
28176;SDS011;15461;41.652;9.378;2024-03-22T06:23:07;5.25;;;2.65;;
28176;SDS011;15461;41.652;9.378;2024-03-22T06:25:35;5.65;;;3.08;;
28176;SDS011;15461;41.652;9.378;2024-03-22T06:28:01;4.20;;;2.85;;
28176;SDS011;15461;41.652;9.378;2024-03-22T06:30:27;5.07;;;2.70;;
28176;SDS011;15461;41.652;9.378;2024-03-22T06:32:53;6.90;;;2.72;;
28176;SDS011;15461;41.652;9.378;2024-03-22T06:35:22;4.18;;;2.60;;
28176;SDS011;15461;41.652;9.378;2024-03-22T06:37:48;3.40;;;2.67;;
28176;SDS011;15461;41.652;9.378;2024-03-22T06:40:14;6.15;;;3.17;;
28176;SDS011;15461;41.652;9.378;2024-03-22T06:42:40;3.45;;;2.35;;
28176;SDS011;15461;41.652;9.378;2024-03-22T06:45:06;4.43;;;3.00;;
28176;SDS011;15461;41.652;9.378;2024-03-22T06:47:32;4.65;;;3.00;;
28176;SDS011;15461;41.652;9.378;2024-03-22T06:49:58;6.78;;;2.80;;
28176;SDS011;15461;41.652;9.378;2024-03-22T06:52:24;4.25;;;2.75;;
28176;SDS011;15461;41.652;9.378;2024-03-22T06:54:50;6.18;;;2.13;;
28176;SDS011;15461;41.652;9.378;2024-03-22T06:57:17;5.43;;;2.85;;
28176;SDS011;15461;41.652;9.378;2024-03-22T06:59:43;4.85;;;2.75;;
28176;SDS011;15461;41.652;9.378;2024-03-22T07:02:08;6.35;;;3.00;;
28176;SDS011;15461;41.652;9.378;2024-03-22T07:04:35;3.83;;;2.92;;
28176;SDS011;15461;41.652;9.378;2024-03-22T07:07:00;5.15;;;2.97;;
28176;SDS011;15461;41.652;9.378;2024-03-22T07:09:26;6.43;;;3.00;;
28176;SDS011;15461;41.652;9.378;2024-03-22T07:11:54;5.95;;;3.30;;
28176;SDS011;15461;41.652;9.378;2024-03-22T07:14:20;7.53;;;2.97;;
28176;SDS011;15461;41.652;9.378;2024-03-22T07:16:49;4.50;;;2.80;;
28176;SDS011;15461;41.652;9.378;2024-03-22T07:19:15;5.07;;;2.90;;
28176;SDS011;15461;41.652;9.378;2024-03-22T07:21:41;5.05;;;3.28;;
28176;SDS011;15461;41.652;9.378;2024-03-22T07:24:07;4.03;;;2.70;;
28176;SDS011;15461;41.652;9.378;2024-03-22T07:26:32;14.35;;;3.75;;
28176;SDS011;15461;41.652;9.378;2024-03-22T07:28:58;5.40;;;2.33;;
28176;SDS011;15461;41.652;9.378;2024-03-22T07:31:24;3.42;;;2.20;;
28176;SDS011;15461;41.652;9.378;2024-03-22T07:33:50;5.05;;;2.67;;
28176;SDS011;15461;41.652;9.378;2024-03-22T07:36:18;3.70;;;2.65;;
28176;SDS011;15461;41.652;9.378;2024-03-22T07:38:44;4.90;;;2.65;;
28176;SDS011;15461;41.652;9.378;2024-03-22T07:41:10;3.53;;;2.30;;
28176;SDS011;15461;41.652;9.378;2024-03-22T07:43:36;4.57;;;2.33;;
28176;SDS011;15461;41.652;9.378;2024-03-22T07:46:02;2.80;;;2.00;;
28176;SDS011;15461;41.652;9.378;2024-03-22T07:48:27;4.10;;;2.40;;
28176;SDS011;15461;41.652;9.378;2024-03-22T07:50:59;4.90;;;2.35;;
28176;SDS011;15461;41.652;9.378;2024-03-22T07:53:28;4.53;;;2.35;;
28176;SDS011;15461;41.652;9.378;2024-03-22T07:55:54;4.68;;;2.45;;
28176;SDS011;15461;41.652;9.378;2024-03-22T07:58:20;3.47;;;2.17;;
28176;SDS011;15461;41.652;9.378;2024-03-22T08:00:46;3.40;;;2.33;;
28176;SDS011;15461;41.652;9.378;2024-03-22T08:03:14;8.02;;;2.45;;
28176;SDS011;15461;41.652;9.378;2024-03-22T08:05:40;19.52;;;7.68;;
28176;SDS011;15461;41.652;9.378;2024-03-22T08:08:06;6.85;;;2.67;;
28176;SDS011;15461;41.652;9.378;2024-03-22T08:10:32;4.28;;;2.53;;
28176;SDS011;15461;41.652;9.378;2024-03-22T08:12:58;3.80;;;2.50;;
28176;SDS011;15461;41.652;9.378;2024-03-22T08:15:25;3.13;;;2.53;;
28176;SDS011;15461;41.652;9.378;2024-03-22T08:17:51;5.65;;;3.28;;
28176;SDS011;15461;41.652;9.378;2024-03-22T08:20:17;3.67;;;2.33;;
28176;SDS011;15461;41.652;9.378;2024-03-22T08:22:43;4.25;;;2.53;;
28176;SDS011;15461;41.652;9.378;2024-03-22T08:25:08;5.40;;;2.30;;
28176;SDS011;15461;41.652;9.378;2024-03-22T08:27:34;5.55;;;2.95;;
28176;SDS011;15461;41.652;9.378;2024-03-22T08:30:00;3.75;;;2.47;;
28176;SDS011;15461;41.652;9.378;2024-03-22T08:32:27;5.20;;;2.42;;
28176;SDS011;15461;41.652;9.378;2024-03-22T08:34:54;5.38;;;2.38;;
28176;SDS011;15461;41.652;9.378;2024-03-22T08:37:20;3.78;;;2.13;;
28176;SDS011;15461;41.652;9.378;2024-03-22T08:39:45;4.30;;;2.25;;
28176;SDS011;15461;41.652;9.378;2024-03-22T08:42:11;4.47;;;2.40;;
28176;SDS011;15461;41.652;9.378;2024-03-22T08:44:37;3.08;;;2.40;;
28176;SDS011;15461;41.652;9.378;2024-03-22T08:47:03;3.10;;;2.28;;
28176;SDS011;15461;41.652;9.378;2024-03-22T08:49:28;3.35;;;2.30;;
28176;SDS011;15461;41.652;9.378;2024-03-22T08:51:55;5.28;;;2.30;;
28176;SDS011;15461;41.652;9.378;2024-03-22T08:54:21;5.57;;;2.40;;
28176;SDS011;15461;41.652;9.378;2024-03-22T08:56:46;7.18;;;2.67;;
28176;SDS011;15461;41.652;9.378;2024-03-22T08:59:12;6.50;;;2.70;;
28176;SDS011;15461;41.652;9.378;2024-03-22T09:01:38;4.45;;;2.75;;
28176;SDS011;15461;41.652;9.378;2024-03-22T09:04:04;7.95;;;3.55;;
28176;SDS011;15461;41.652;9.378;2024-03-22T09:06:29;6.65;;;2.38;;
28176;SDS011;15461;41.652;9.378;2024-03-22T09:08:56;5.38;;;2.55;;
28176;SDS011;15461;41.652;9.378;2024-03-22T09:11:23;4.22;;;2.33;;
28176;SDS011;15461;41.652;9.378;2024-03-22T09:13:53;4.13;;;2.47;;
28176;SDS011;15461;41.652;9.378;2024-03-22T09:16:19;7.25;;;2.78;;
28176;SDS011;15461;41.652;9.378;2024-03-22T09:18:45;4.93;;;2.63;;
28176;SDS011;15461;41.652;9.378;2024-03-22T09:21:11;7.00;;;2.28;;
28176;SDS011;15461;41.652;9.378;2024-03-22T09:23:37;9.32;;;3.55;;
28176;SDS011;15461;41.652;9.378;2024-03-22T09:26:03;6.65;;;3.05;;
28176;SDS011;15461;41.652;9.378;2024-03-22T09:28:29;10.25;;;2.60;;
28176;SDS011;15461;41.652;9.378;2024-03-22T09:30:55;5.78;;;2.67;;
28176;SDS011;15461;41.652;9.378;2024-03-22T09:33:21;6.30;;;2.80;;
28176;SDS011;15461;41.652;9.378;2024-03-22T09:35:47;6.95;;;2.45;;
28176;SDS011;15461;41.652;9.378;2024-03-22T09:38:13;6.18;;;2.90;;
28176;SDS011;15461;41.652;9.378;2024-03-22T09:40:41;6.15;;;2.80;;
28176;SDS011;15461;41.652;9.378;2024-03-22T09:43:07;8.15;;;2.92;;
28176;SDS011;15461;41.652;9.378;2024-03-22T09:45:33;7.03;;;2.95;;
28176;SDS011;15461;41.652;9.378;2024-03-22T09:47:59;4.00;;;2.50;;
28176;SDS011;15461;41.652;9.378;2024-03-22T09:50:25;5.22;;;2.70;;
28176;SDS011;15461;41.652;9.378;2024-03-22T09:52:52;6.35;;;2.42;;
28176;SDS011;15461;41.652;9.378;2024-03-22T09:55:22;3.90;;;2.40;;
28176;SDS011;15461;41.652;9.378;2024-03-22T09:57:49;7.32;;;2.85;;
28176;SDS011;15461;41.652;9.378;2024-03-22T10:00:21;7.60;;;2.80;;
28176;SDS011;15461;41.652;9.378;2024-03-22T10:02:51;6.20;;;2.90;;
28176;SDS011;15461;41.652;9.378;2024-03-22T10:05:18;6.38;;;2.50;;
28176;SDS011;15461;41.652;9.378;2024-03-22T10:07:44;11.30;;;2.85;;
28176;SDS011;15461;41.652;9.378;2024-03-22T10:10:10;6.63;;;2.80;;
28176;SDS011;15461;41.652;9.378;2024-03-22T10:12:37;5.10;;;2.88;;
28176;SDS011;15461;41.652;9.378;2024-03-22T10:15:04;7.65;;;2.78;;
28176;SDS011;15461;41.652;9.378;2024-03-22T10:17:34;6.90;;;2.85;;
28176;SDS011;15461;41.652;9.378;2024-03-22T10:20:00;5.80;;;3.08;;
28176;SDS011;15461;41.652;9.378;2024-03-22T10:22:25;9.60;;;2.90;;
28176;SDS011;15461;41.652;9.378;2024-03-22T10:24:52;5.15;;;3.05;;
28176;SDS011;15461;41.652;9.378;2024-03-22T10:27:18;6.93;;;2.95;;
28176;SDS011;15461;41.652;9.378;2024-03-22T10:29:45;5.15;;;2.92;;
28176;SDS011;15461;41.652;9.378;2024-03-22T10:32:12;7.15;;;2.40;;
28176;SDS011;15461;41.652;9.378;2024-03-22T10:34:39;10.52;;;3.22;;
28176;SDS011;15461;41.652;9.378;2024-03-22T10:37:06;11.32;;;2.97;;
28176;SDS011;15461;41.652;9.378;2024-03-22T10:39:35;7.70;;;2.80;;
28176;SDS011;15461;41.652;9.378;2024-03-22T10:42:02;6.68;;;2.92;;
28176;SDS011;15461;41.652;9.378;2024-03-22T10:44:30;7.55;;;2.50;;
28176;SDS011;15461;41.652;9.378;2024-03-22T10:46:56;5.28;;;2.80;;
28176;SDS011;15461;41.652;9.378;2024-03-22T10:49:26;5.03;;;2.65;;
28176;SDS011;15461;41.652;9.378;2024-03-22T10:51:57;8.70;;;2.78;;
28176;SDS011;15461;41.652;9.378;2024-03-22T10:54:26;4.07;;;2.83;;
28176;SDS011;15461;41.652;9.378;2024-03-22T10:56:56;3.17;;;2.30;;
28176;SDS011;15461;41.652;9.378;2024-03-22T10:59:22;3.95;;;2.42;;
28176;SDS011;15461;41.652;9.378;2024-03-22T11:01:48;6.40;;;2.75;;
28176;SDS011;15461;41.652;9.378;2024-03-22T11:04:16;8.40;;;2.90;;
28176;SDS011;15461;41.652;9.378;2024-03-22T11:06:51;4.40;;;2.58;;
28176;SDS011;15461;41.652;9.378;2024-03-22T11:09:23;7.72;;;3.00;;
28176;SDS011;15461;41.652;9.378;2024-03-22T11:11:54;6.13;;;3.10;;
28176;SDS011;15461;41.652;9.378;2024-03-22T11:14:22;5.45;;;2.47;;
28176;SDS011;15461;41.652;9.378;2024-03-22T11:16:50;4.50;;;2.70;;
28176;SDS011;15461;41.652;9.378;2024-03-22T11:19:16;6.85;;;2.80;;
28176;SDS011;15461;41.652;9.378;2024-03-22T11:21:42;9.00;;;3.15;;
28176;SDS011;15461;41.652;9.378;2024-03-22T11:24:08;6.88;;;2.80;;
28176;SDS011;15461;41.652;9.378;2024-03-22T11:26:35;4.07;;;2.47;;
28176;SDS011;15461;41.652;9.378;2024-03-22T11:29:00;8.27;;;3.63;;
28176;SDS011;15461;41.652;9.378;2024-03-22T11:31:27;4.97;;;3.10;;
28176;SDS011;15461;41.652;9.378;2024-03-22T11:33:56;5.10;;;2.88;;
28176;SDS011;15461;41.652;9.378;2024-03-22T11:36:24;9.48;;;3.80;;
28176;SDS011;15461;41.652;9.378;2024-03-22T11:38:50;4.65;;;2.83;;
28176;SDS011;15461;41.652;9.378;2024-03-22T11:41:22;5.93;;;2.92;;
28176;SDS011;15461;41.652;9.378;2024-03-22T11:43:52;6.15;;;3.10;;
28176;SDS011;15461;41.652;9.378;2024-03-22T11:46:18;12.60;;;3.10;;
28176;SDS011;15461;41.652;9.378;2024-03-22T11:48:50;8.07;;;3.28;;
28176;SDS011;15461;41.652;9.378;2024-03-22T11:51:17;6.57;;;3.10;;
28176;SDS011;15461;41.652;9.378;2024-03-22T11:53:48;6.78;;;3.67;;
28176;SDS011;15461;41.652;9.378;2024-03-22T11:56:17;5.05;;;3.17;;
28176;SDS011;15461;41.652;9.378;2024-03-22T11:58:45;7.32;;;3.10;;
28176;SDS011;15461;41.652;9.378;2024-03-22T12:01:12;9.93;;;3.15;;
28176;SDS011;15461;41.652;9.378;2024-03-22T12:03:39;6.07;;;3.22;;
28176;SDS011;15461;41.652;9.378;2024-03-22T12:06:05;9.30;;;3.40;;
28176;SDS011;15461;41.652;9.378;2024-03-22T12:08:31;7.80;;;3.67;;
28176;SDS011;15461;41.652;9.378;2024-03-22T12:10:57;7.55;;;3.28;;
28176;SDS011;15461;41.652;9.378;2024-03-22T12:13:23;7.05;;;3.33;;
28176;SDS011;15461;41.652;9.378;2024-03-22T12:15:49;10.75;;;2.80;;
28176;SDS011;15461;41.652;9.378;2024-03-22T12:18:15;5.75;;;3.30;;
28176;SDS011;15461;41.652;9.378;2024-03-22T12:20:41;9.00;;;3.10;;
28176;SDS011;15461;41.652;9.378;2024-03-22T12:23:07;7.13;;;3.30;;
28176;SDS011;15461;41.652;9.378;2024-03-22T12:25:33;6.22;;;3.40;;
28176;SDS011;15461;41.652;9.378;2024-03-22T12:27:58;10.60;;;3.67;;
28176;SDS011;15461;41.652;9.378;2024-03-22T12:30:24;14.43;;;3.80;;
28176;SDS011;15461;41.652;9.378;2024-03-22T12:32:51;8.20;;;4.32;;
28176;SDS011;15461;41.652;9.378;2024-03-22T12:35:17;6.40;;;3.40;;
28176;SDS011;15461;41.652;9.378;2024-03-22T12:37:42;14.15;;;4.90;;
28176;SDS011;15461;41.652;9.378;2024-03-22T12:40:08;9.30;;;4.43;;
28176;SDS011;15461;41.652;9.378;2024-03-22T12:42:34;9.15;;;4.40;;
28176;SDS011;15461;41.652;9.378;2024-03-22T12:45:01;8.48;;;4.22;;
28176;SDS011;15461;41.652;9.378;2024-03-22T12:47:26;11.20;;;4.60;;
28176;SDS011;15461;41.652;9.378;2024-03-22T12:49:53;8.68;;;3.88;;
28176;SDS011;15461;41.652;9.378;2024-03-22T12:52:18;10.57;;;3.78;;
28176;SDS011;15461;41.652;9.378;2024-03-22T12:54:45;11.10;;;3.95;;
28176;SDS011;15461;41.652;9.378;2024-03-22T12:57:11;13.57;;;4.30;;
28176;SDS011;15461;41.652;9.378;2024-03-22T12:59:37;27.30;;;12.45;;
28176;SDS011;15461;41.652;9.378;2024-03-22T13:02:03;12.25;;;4.95;;
28176;SDS011;15461;41.652;9.378;2024-03-22T13:04:30;6.53;;;4.50;;
28176;SDS011;15461;41.652;9.378;2024-03-22T13:06:55;12.60;;;4.28;;
28176;SDS011;15461;41.652;9.378;2024-03-22T13:09:21;7.60;;;3.65;;
28176;SDS011;15461;41.652;9.378;2024-03-22T13:11:47;9.57;;;4.60;;
28176;SDS011;15461;41.652;9.378;2024-03-22T13:14:14;25.20;;;10.02;;
28176;SDS011;15461;41.652;9.378;2024-03-22T13:16:40;44.97;;;18.77;;
28176;SDS011;15461;41.652;9.378;2024-03-22T13:19:06;24.52;;;9.73;;
28176;SDS011;15461;41.652;9.378;2024-03-22T13:21:37;14.68;;;7.50;;
28176;SDS011;15461;41.652;9.378;2024-03-22T13:24:03;15.88;;;8.23;;
28176;SDS011;15461;41.652;9.378;2024-03-22T13:26:29;12.35;;;4.80;;
28176;SDS011;15461;41.652;9.378;2024-03-22T13:28:55;15.52;;;6.45;;
28176;SDS011;15461;41.652;9.378;2024-03-22T13:31:21;27.95;;;13.30;;
28176;SDS011;15461;41.652;9.378;2024-03-22T13:33:46;46.38;;;24.92;;
28176;SDS011;15461;41.652;9.378;2024-03-22T13:36:12;12.10;;;5.38;;
28176;SDS011;15461;41.652;9.378;2024-03-22T13:38:39;12.05;;;5.18;;
28176;SDS011;15461;41.652;9.378;2024-03-22T13:41:04;22.38;;;7.55;;
28176;SDS011;15461;41.652;9.378;2024-03-22T13:43:31;13.48;;;5.05;;
28176;SDS011;15461;41.652;9.378;2024-03-22T13:45:57;14.10;;;5.20;;
28176;SDS011;15461;41.652;9.378;2024-03-22T13:48:24;9.18;;;5.22;;
28176;SDS011;15461;41.652;9.378;2024-03-22T13:53:16;45.45;;;19.35;;
28176;SDS011;15461;41.652;9.378;2024-03-22T13:55:42;29.20;;;13.13;;
28176;SDS011;15461;41.652;9.378;2024-03-22T13:58:08;10.82;;;5.70;;
28176;SDS011;15461;41.652;9.378;2024-03-22T14:00:34;12.68;;;5.60;;
28176;SDS011;15461;41.652;9.378;2024-03-22T14:03:01;18.95;;;5.68;;
28176;SDS011;15461;41.652;9.378;2024-03-22T14:05:27;11.50;;;4.70;;
28176;SDS011;15461;41.652;9.378;2024-03-22T14:07:52;10.57;;;5.32;;
28176;SDS011;15461;41.652;9.378;2024-03-22T14:10:19;11.00;;;5.05;;
28176;SDS011;15461;41.652;9.378;2024-03-22T14:12:46;10.32;;;5.15;;
28176;SDS011;15461;41.652;9.378;2024-03-22T14:15:12;10.65;;;5.93;;
28176;SDS011;15461;41.652;9.378;2024-03-22T14:17:38;13.70;;;5.90;;
28176;SDS011;15461;41.652;9.378;2024-03-22T14:20:04;18.85;;;9.30;;
28176;SDS011;15461;41.652;9.378;2024-03-22T14:22:37;15.80;;;6.13;;
28176;SDS011;15461;41.652;9.378;2024-03-22T14:25:06;14.65;;;7.00;;
28176;SDS011;15461;41.652;9.378;2024-03-22T14:27:32;14.50;;;5.88;;
28176;SDS011;15461;41.652;9.378;2024-03-22T14:29:59;13.15;;;6.10;;
28176;SDS011;15461;41.652;9.378;2024-03-22T14:32:25;14.85;;;6.13;;
28176;SDS011;15461;41.652;9.378;2024-03-22T14:34:51;11.88;;;5.88;;
28176;SDS011;15461;41.652;9.378;2024-03-22T14:37:17;12.35;;;5.78;;
28176;SDS011;15461;41.652;9.378;2024-03-22T14:39:43;9.73;;;4.88;;
28176;SDS011;15461;41.652;9.378;2024-03-22T14:42:09;10.82;;;5.85;;
28176;SDS011;15461;41.652;9.378;2024-03-22T14:44:35;16.08;;;6.35;;